sensor_id;sensor_type;location;lat;lon;timestamp;P1;durP1;ratioP1;P2;durP2;ratioP2
23680;SDS011;62915;50.832;4.462;2023-02-28T00:00:27;10.40;;;7.82;;
23680;SDS011;62915;50.832;4.462;2023-02-28T00:02:53;12.43;;;7.95;;
23680;SDS011;62915;50.832;4.462;2023-02-28T00:05:19;9.65;;;8.05;;
23680;SDS011;62915;50.832;4.462;2023-02-28T00:07:46;11.35;;;8.80;;
23680;SDS011;62915;50.832;4.462;2023-02-28T00:10:14;11.63;;;7.80;;
23680;SDS011;62915;50.832;4.462;2023-02-28T00:12:46;11.20;;;8.23;;
23680;SDS011;62915;50.832;4.462;2023-02-28T00:15:12;11.57;;;7.53;;
23680;SDS011;62915;50.832;4.462;2023-02-28T00:17:38;10.73;;;8.05;;
23680;SDS011;62915;50.832;4.462;2023-02-28T00:20:05;14.02;;;7.82;;
23680;SDS011;62915;50.832;4.462;2023-02-28T00:22:38;11.77;;;8.43;;
23680;SDS011;62915;50.832;4.462;2023-02-28T00:25:06;13.35;;;8.35;;
23680;SDS011;62915;50.832;4.462;2023-02-28T00:27:32;13.57;;;8.00;;
23680;SDS011;62915;50.832;4.462;2023-02-28T00:30:00;11.02;;;9.00;;
23680;SDS011;62915;50.832;4.462;2023-02-28T00:32:26;10.85;;;8.95;;
23680;SDS011;62915;50.832;4.462;2023-02-28T00:34:51;12.93;;;8.50;;
23680;SDS011;62915;50.832;4.462;2023-02-28T00:37:17;12.05;;;8.10;;
23680;SDS011;62915;50.832;4.462;2023-02-28T00:39:43;10.98;;;7.63;;
23680;SDS011;62915;50.832;4.462;2023-02-28T00:42:08;13.52;;;8.07;;
23680;SDS011;62915;50.832;4.462;2023-02-28T00:44:34;11.55;;;7.85;;
23680;SDS011;62915;50.832;4.462;2023-02-28T00:47:00;11.85;;;8.05;;
23680;SDS011;62915;50.832;4.462;2023-02-28T00:49:26;10.15;;;7.32;;
23680;SDS011;62915;50.832;4.462;2023-02-28T00:51:53;9.93;;;7.15;;
23680;SDS011;62915;50.832;4.462;2023-02-28T00:54:20;10.30;;;7.25;;
23680;SDS011;62915;50.832;4.462;2023-02-28T00:56:46;9.02;;;7.05;;
23680;SDS011;62915;50.832;4.462;2023-02-28T00:59:13;11.55;;;7.45;;
23680;SDS011;62915;50.832;4.462;2023-02-28T01:01:40;9.85;;;6.80;;
23680;SDS011;62915;50.832;4.462;2023-02-28T01:04:06;11.82;;;7.45;;
23680;SDS011;62915;50.832;4.462;2023-02-28T01:06:31;10.18;;;6.65;;
23680;SDS011;62915;50.832;4.462;2023-02-28T01:08:58;8.57;;;6.18;;
23680;SDS011;62915;50.832;4.462;2023-02-28T01:11:24;8.65;;;6.85;;
23680;SDS011;62915;50.832;4.462;2023-02-28T01:13:50;10.43;;;6.65;;
23680;SDS011;62915;50.832;4.462;2023-02-28T01:16:15;10.38;;;6.70;;
23680;SDS011;62915;50.832;4.462;2023-02-28T01:18:42;12.05;;;6.72;;
23680;SDS011;62915;50.832;4.462;2023-02-28T01:21:10;11.70;;;7.35;;
23680;SDS011;62915;50.832;4.462;2023-02-28T01:23:37;9.18;;;7.10;;
23680;SDS011;62915;50.832;4.462;2023-02-28T01:26:08;10.13;;;6.82;;
23680;SDS011;62915;50.832;4.462;2023-02-28T01:28:38;10.63;;;6.60;;
23680;SDS011;62915;50.832;4.462;2023-02-28T01:31:04;12.25;;;7.53;;
23680;SDS011;62915;50.832;4.462;2023-02-28T01:33:30;10.82;;;7.45;;
23680;SDS011;62915;50.832;4.462;2023-02-28T01:36:00;9.52;;;7.30;;
23680;SDS011;62915;50.832;4.462;2023-02-28T01:38:29;11.02;;;7.22;;
23680;SDS011;62915;50.832;4.462;2023-02-28T01:40:55;12.38;;;7.45;;
23680;SDS011;62915;50.832;4.462;2023-02-28T01:43:25;10.07;;;7.07;;
23680;SDS011;62915;50.832;4.462;2023-02-28T01:45:53;8.55;;;6.93;;
23680;SDS011;62915;50.832;4.462;2023-02-28T01:48:21;11.15;;;8.02;;
23680;SDS011;62915;50.832;4.462;2023-02-28T01:53:22;10.75;;;7.57;;
23680;SDS011;62915;50.832;4.462;2023-02-28T01:55:52;10.45;;;7.35;;
23680;SDS011;62915;50.832;4.462;2023-02-28T01:58:19;12.00;;;7.13;;
23680;SDS011;62915;50.832;4.462;2023-02-28T02:00:45;10.90;;;7.30;;
23680;SDS011;62915;50.832;4.462;2023-02-28T02:03:14;8.90;;;7.57;;
23680;SDS011;62915;50.832;4.462;2023-02-28T02:05:44;7.88;;;7.00;;
23680;SDS011;62915;50.832;4.462;2023-02-28T02:08:13;10.80;;;7.68;;
23680;SDS011;62915;50.832;4.462;2023-02-28T02:10:52;11.02;;;7.72;;
23680;SDS011;62915;50.832;4.462;2023-02-28T02:13:43;12.20;;;7.15;;
23680;SDS011;62915;50.832;4.462;2023-02-28T02:25:11;9.10;;;7.15;;
23680;SDS011;62915;50.832;4.462;2023-02-28T02:36:48;10.73;;;7.82;;
23680;SDS011;62915;50.832;4.462;2023-02-28T02:42:15;9.80;;;7.60;;
23680;SDS011;62915;50.832;4.462;2023-02-28T02:44:52;11.95;;;7.55;;
23680;SDS011;62915;50.832;4.462;2023-02-28T02:47:26;11.55;;;7.25;;
23680;SDS011;62915;50.832;4.462;2023-02-28T02:49:55;9.77;;;7.70;;
23680;SDS011;62915;50.832;4.462;2023-02-28T02:52:30;13.40;;;8.13;;
23680;SDS011;62915;50.832;4.462;2023-02-28T02:55:07;13.05;;;7.95;;
23680;SDS011;62915;50.832;4.462;2023-02-28T02:57:38;13.05;;;8.40;;
23680;SDS011;62915;50.832;4.462;2023-02-28T03:00:12;11.43;;;8.10;;
23680;SDS011;62915;50.832;4.462;2023-02-28T03:02:40;12.07;;;8.40;;
23680;SDS011;62915;50.832;4.462;2023-02-28T03:05:09;10.95;;;8.27;;
23680;SDS011;62915;50.832;4.462;2023-02-28T03:07:46;13.68;;;8.30;;
23680;SDS011;62915;50.832;4.462;2023-02-28T03:21:36;9.45;;;8.02;;
23680;SDS011;62915;50.832;4.462;2023-02-28T03:24:18;14.07;;;9.00;;
23680;SDS011;62915;50.832;4.462;2023-02-28T03:26:52;11.65;;;8.70;;
23680;SDS011;62915;50.832;4.462;2023-02-28T03:32:33;15.00;;;9.25;;
23680;SDS011;62915;50.832;4.462;2023-02-28T03:37:50;12.10;;;9.60;;
23680;SDS011;62915;50.832;4.462;2023-02-28T03:40:21;9.70;;;8.48;;
23680;SDS011;62915;50.832;4.462;2023-02-28T03:42:51;15.75;;;9.38;;
23680;SDS011;62915;50.832;4.462;2023-02-28T03:45:23;14.38;;;9.93;;
23680;SDS011;62915;50.832;4.462;2023-02-28T03:50:42;14.75;;;9.55;;
23680;SDS011;62915;50.832;4.462;2023-02-28T03:53:18;14.98;;;9.23;;
23680;SDS011;62915;50.832;4.462;2023-02-28T03:58:47;11.43;;;8.75;;
23680;SDS011;62915;50.832;4.462;2023-02-28T04:01:30;13.15;;;8.75;;
23680;SDS011;62915;50.832;4.462;2023-02-28T04:04:00;14.48;;;9.68;;
23680;SDS011;62915;50.832;4.462;2023-02-28T04:06:27;13.35;;;9.68;;
23680;SDS011;62915;50.832;4.462;2023-02-28T04:08:56;15.07;;;10.40;;
23680;SDS011;62915;50.832;4.462;2023-02-28T04:11:23;17.80;;;9.68;;
23680;SDS011;62915;50.832;4.462;2023-02-28T04:13:54;12.73;;;9.82;;
23680;SDS011;62915;50.832;4.462;2023-02-28T04:16:19;12.70;;;9.65;;
23680;SDS011;62915;50.832;4.462;2023-02-28T04:18:45;17.83;;;9.95;;
23680;SDS011;62915;50.832;4.462;2023-02-28T04:21:11;16.88;;;10.32;;
23680;SDS011;62915;50.832;4.462;2023-02-28T04:23:37;14.65;;;9.68;;
23680;SDS011;62915;50.832;4.462;2023-02-28T04:26:03;12.80;;;10.23;;
23680;SDS011;62915;50.832;4.462;2023-02-28T04:28:29;14.93;;;10.18;;
23680;SDS011;62915;50.832;4.462;2023-02-28T04:30:58;12.43;;;10.50;;
23680;SDS011;62915;50.832;4.462;2023-02-28T04:33:29;13.50;;;10.65;;
23680;SDS011;62915;50.832;4.462;2023-02-28T04:36:02;14.93;;;9.73;;
23680;SDS011;62915;50.832;4.462;2023-02-28T04:38:30;13.23;;;10.43;;
23680;SDS011;62915;50.832;4.462;2023-02-28T04:40:58;15.45;;;11.82;;
23680;SDS011;62915;50.832;4.462;2023-02-28T04:43:27;14.95;;;10.27;;
23680;SDS011;62915;50.832;4.462;2023-02-28T04:45:54;16.00;;;11.05;;
23680;SDS011;62915;50.832;4.462;2023-02-28T04:48:24;16.58;;;11.73;;
23680;SDS011;62915;50.832;4.462;2023-02-28T04:50:52;15.82;;;11.05;;
23680;SDS011;62915;50.832;4.462;2023-02-28T04:53:18;19.67;;;11.80;;
23680;SDS011;62915;50.832;4.462;2023-02-28T04:55:44;17.23;;;11.63;;
23680;SDS011;62915;50.832;4.462;2023-02-28T04:58:10;18.10;;;10.95;;
23680;SDS011;62915;50.832;4.462;2023-02-28T05:00:37;18.70;;;11.77;;
23680;SDS011;62915;50.832;4.462;2023-02-28T05:03:03;18.00;;;11.25;;
23680;SDS011;62915;50.832;4.462;2023-02-28T05:05:30;15.73;;;11.30;;
23680;SDS011;62915;50.832;4.462;2023-02-28T05:07:56;15.25;;;11.65;;
23680;SDS011;62915;50.832;4.462;2023-02-28T05:10:22;17.90;;;11.63;;
23680;SDS011;62915;50.832;4.462;2023-02-28T05:12:48;15.18;;;11.30;;
23680;SDS011;62915;50.832;4.462;2023-02-28T05:15:14;16.73;;;11.10;;
23680;SDS011;62915;50.832;4.462;2023-02-28T05:17:41;15.40;;;11.65;;
23680;SDS011;62915;50.832;4.462;2023-02-28T05:20:08;14.50;;;11.45;;
23680;SDS011;62915;50.832;4.462;2023-02-28T05:22:38;22.95;;;12.50;;
23680;SDS011;62915;50.832;4.462;2023-02-28T05:25:05;18.20;;;12.02;;
23680;SDS011;62915;50.832;4.462;2023-02-28T05:27:31;20.92;;;12.18;;
23680;SDS011;62915;50.832;4.462;2023-02-28T05:29:57;16.08;;;11.88;;
23680;SDS011;62915;50.832;4.462;2023-02-28T05:32:24;13.45;;;11.68;;
23680;SDS011;62915;50.832;4.462;2023-02-28T05:34:50;21.17;;;12.18;;
23680;SDS011;62915;50.832;4.462;2023-02-28T05:37:16;15.90;;;11.48;;
23680;SDS011;62915;50.832;4.462;2023-02-28T05:39:42;15.98;;;11.35;;
23680;SDS011;62915;50.832;4.462;2023-02-28T05:42:08;16.02;;;12.13;;
23680;SDS011;62915;50.832;4.462;2023-02-28T05:44:34;18.13;;;12.27;;
23680;SDS011;62915;50.832;4.462;2023-02-28T05:47:00;17.13;;;12.05;;
23680;SDS011;62915;50.832;4.462;2023-02-28T05:49:26;19.10;;;12.07;;
23680;SDS011;62915;50.832;4.462;2023-02-28T05:51:52;17.77;;;13.00;;
23680;SDS011;62915;50.832;4.462;2023-02-28T05:54:17;22.52;;;12.52;;
23680;SDS011;62915;50.832;4.462;2023-02-28T05:59:18;18.65;;;12.75;;
23680;SDS011;62915;50.832;4.462;2023-02-28T06:01:44;16.17;;;12.85;;
23680;SDS011;62915;50.832;4.462;2023-02-28T06:04:14;15.82;;;11.80;;
23680;SDS011;62915;50.832;4.462;2023-02-28T06:06:45;16.83;;;12.50;;
23680;SDS011;62915;50.832;4.462;2023-02-28T06:09:12;16.13;;;11.88;;
23680;SDS011;62915;50.832;4.462;2023-02-28T06:11:38;22.92;;;12.07;;
23680;SDS011;62915;50.832;4.462;2023-02-28T06:14:04;16.95;;;11.73;;
23680;SDS011;62915;50.832;4.462;2023-02-28T06:16:33;16.38;;;11.85;;
23680;SDS011;62915;50.832;4.462;2023-02-28T06:19:00;16.48;;;12.27;;
23680;SDS011;62915;50.832;4.462;2023-02-28T06:21:28;21.65;;;12.13;;
23680;SDS011;62915;50.832;4.462;2023-02-28T06:23:55;16.35;;;12.23;;
23680;SDS011;62915;50.832;4.462;2023-02-28T06:26:21;18.02;;;11.77;;
23680;SDS011;62915;50.832;4.462;2023-02-28T06:28:47;18.08;;;11.65;;
23680;SDS011;62915;50.832;4.462;2023-02-28T06:31:14;14.13;;;11.23;;
23680;SDS011;62915;50.832;4.462;2023-02-28T06:33:41;17.23;;;11.40;;
23680;SDS011;62915;50.832;4.462;2023-02-28T06:36:08;13.73;;;11.35;;
23680;SDS011;62915;50.832;4.462;2023-02-28T06:38:35;18.02;;;11.68;;
23680;SDS011;62915;50.832;4.462;2023-02-28T06:41:01;15.45;;;11.25;;
23680;SDS011;62915;50.832;4.462;2023-02-28T06:43:31;15.43;;;10.73;;
23680;SDS011;62915;50.832;4.462;2023-02-28T06:46:00;17.38;;;11.10;;
23680;SDS011;62915;50.832;4.462;2023-02-28T06:48:28;17.55;;;11.38;;
23680;SDS011;62915;50.832;4.462;2023-02-28T06:51:10;22.48;;;11.90;;
23680;SDS011;62915;50.832;4.462;2023-02-28T06:53:47;18.77;;;12.70;;
23680;SDS011;62915;50.832;4.462;2023-02-28T06:56:13;17.73;;;11.57;;
23680;SDS011;62915;50.832;4.462;2023-02-28T06:58:40;20.02;;;11.65;;
23680;SDS011;62915;50.832;4.462;2023-02-28T07:01:06;20.23;;;11.50;;
23680;SDS011;62915;50.832;4.462;2023-02-28T07:03:34;16.40;;;12.45;;
23680;SDS011;62915;50.832;4.462;2023-02-28T07:06:01;19.83;;;10.75;;
23680;SDS011;62915;50.832;4.462;2023-02-28T07:08:28;20.20;;;11.05;;
23680;SDS011;62915;50.832;4.462;2023-02-28T07:10:54;13.93;;;10.82;;
23680;SDS011;62915;50.832;4.462;2023-02-28T07:13:21;16.50;;;12.00;;
23680;SDS011;62915;50.832;4.462;2023-02-28T07:15:54;20.17;;;11.50;;
23680;SDS011;62915;50.832;4.462;2023-02-28T07:18:27;17.13;;;11.38;;
23680;SDS011;62915;50.832;4.462;2023-02-28T07:20:54;14.48;;;10.98;;
23680;SDS011;62915;50.832;4.462;2023-02-28T07:23:20;16.20;;;11.38;;
23680;SDS011;62915;50.832;4.462;2023-02-28T07:25:47;15.88;;;11.05;;
23680;SDS011;62915;50.832;4.462;2023-02-28T07:28:14;16.17;;;11.57;;
23680;SDS011;62915;50.832;4.462;2023-02-28T07:30:40;17.40;;;11.13;;
23680;SDS011;62915;50.832;4.462;2023-02-28T07:33:06;15.48;;;10.75;;
23680;SDS011;62915;50.832;4.462;2023-02-28T07:35:32;16.25;;;10.57;;
23680;SDS011;62915;50.832;4.462;2023-02-28T07:37:58;12.88;;;9.63;;
23680;SDS011;62915;50.832;4.462;2023-02-28T07:40:24;12.85;;;8.98;;
23680;SDS011;62915;50.832;4.462;2023-02-28T07:42:51;13.48;;;9.20;;
23680;SDS011;62915;50.832;4.462;2023-02-28T07:45:16;19.45;;;9.63;;
23680;SDS011;62915;50.832;4.462;2023-02-28T07:47:42;12.55;;;9.02;;
23680;SDS011;62915;50.832;4.462;2023-02-28T07:50:10;13.98;;;8.80;;
23680;SDS011;62915;50.832;4.462;2023-02-28T07:52:38;15.80;;;8.70;;
23680;SDS011;62915;50.832;4.462;2023-02-28T07:55:05;13.55;;;8.43;;
23680;SDS011;62915;50.832;4.462;2023-02-28T07:57:33;14.82;;;8.98;;
23680;SDS011;62915;50.832;4.462;2023-02-28T07:59:58;12.82;;;8.73;;
23680;SDS011;62915;50.832;4.462;2023-02-28T08:02:24;15.80;;;8.77;;
23680;SDS011;62915;50.832;4.462;2023-02-28T08:04:50;13.65;;;8.02;;
23680;SDS011;62915;50.832;4.462;2023-02-28T08:07:16;11.27;;;7.78;;
23680;SDS011;62915;50.832;4.462;2023-02-28T08:09:43;10.32;;;7.78;;
23680;SDS011;62915;50.832;4.462;2023-02-28T08:12:09;11.07;;;7.85;;
23680;SDS011;62915;50.832;4.462;2023-02-28T08:14:36;11.15;;;7.95;;
23680;SDS011;62915;50.832;4.462;2023-02-28T08:17:03;12.80;;;8.10;;
23680;SDS011;62915;50.832;4.462;2023-02-28T08:19:29;13.98;;;8.10;;
23680;SDS011;62915;50.832;4.462;2023-02-28T08:21:55;13.60;;;7.15;;
23680;SDS011;62915;50.832;4.462;2023-02-28T08:24:21;9.48;;;7.45;;
23680;SDS011;62915;50.832;4.462;2023-02-28T08:26:47;11.05;;;6.43;;
23680;SDS011;62915;50.832;4.462;2023-02-28T08:29:13;11.00;;;7.22;;
23680;SDS011;62915;50.832;4.462;2023-02-28T08:31:38;12.63;;;7.47;;
23680;SDS011;62915;50.832;4.462;2023-02-28T08:34:07;9.95;;;6.22;;
23680;SDS011;62915;50.832;4.462;2023-02-28T08:36:35;11.05;;;6.93;;
23680;SDS011;62915;50.832;4.462;2023-02-28T08:39:01;13.65;;;6.90;;
23680;SDS011;62915;50.832;4.462;2023-02-28T08:41:27;10.52;;;7.15;;
23680;SDS011;62915;50.832;4.462;2023-02-28T08:43:53;9.77;;;6.60;;
23680;SDS011;62915;50.832;4.462;2023-02-28T08:46:19;9.90;;;6.60;;
23680;SDS011;62915;50.832;4.462;2023-02-28T08:48:45;10.65;;;6.88;;
23680;SDS011;62915;50.832;4.462;2023-02-28T08:51:14;9.05;;;6.88;;
23680;SDS011;62915;50.832;4.462;2023-02-28T08:53:44;8.27;;;6.57;;
23680;SDS011;62915;50.832;4.462;2023-02-28T08:56:11;8.57;;;5.95;;
23680;SDS011;62915;50.832;4.462;2023-02-28T08:58:38;8.75;;;6.43;;
23680;SDS011;62915;50.832;4.462;2023-02-28T09:01:11;7.22;;;5.90;;
23680;SDS011;62915;50.832;4.462;2023-02-28T09:03:40;8.35;;;6.18;;
23680;SDS011;62915;50.832;4.462;2023-02-28T09:06:07;8.80;;;5.78;;
23680;SDS011;62915;50.832;4.462;2023-02-28T09:08:33;10.70;;;5.63;;
23680;SDS011;62915;50.832;4.462;2023-02-28T09:10:59;7.82;;;5.18;;
23680;SDS011;62915;50.832;4.462;2023-02-28T09:13:26;7.90;;;5.00;;
23680;SDS011;62915;50.832;4.462;2023-02-28T09:15:53;6.18;;;4.90;;
23680;SDS011;62915;50.832;4.462;2023-02-28T09:18:19;6.25;;;4.78;;
23680;SDS011;62915;50.832;4.462;2023-02-28T09:20:46;6.00;;;4.53;;
23680;SDS011;62915;50.832;4.462;2023-02-28T09:23:12;8.93;;;5.00;;
23680;SDS011;62915;50.832;4.462;2023-02-28T09:25:44;9.85;;;4.90;;
23680;SDS011;62915;50.832;4.462;2023-02-28T09:28:14;5.55;;;4.85;;
23680;SDS011;62915;50.832;4.462;2023-02-28T09:30:42;7.13;;;4.57;;
23680;SDS011;62915;50.832;4.462;2023-02-28T09:33:12;7.13;;;4.50;;
23680;SDS011;62915;50.832;4.462;2023-02-28T09:35:38;5.65;;;4.40;;
23680;SDS011;62915;50.832;4.462;2023-02-28T09:38:04;6.53;;;4.28;;
23680;SDS011;62915;50.832;4.462;2023-02-28T09:40:34;8.90;;;4.20;;
23680;SDS011;62915;50.832;4.462;2023-02-28T09:43:02;6.20;;;4.15;;
23680;SDS011;62915;50.832;4.462;2023-02-28T09:45:40;6.57;;;3.70;;
23680;SDS011;62915;50.832;4.462;2023-02-28T09:48:13;4.60;;;3.80;;
23680;SDS011;62915;50.832;4.462;2023-02-28T09:53:28;5.07;;;3.97;;
23680;SDS011;62915;50.832;4.462;2023-02-28T09:56:21;5.60;;;4.13;;
23680;SDS011;62915;50.832;4.462;2023-02-28T09:59:02;5.10;;;3.60;;
23680;SDS011;62915;50.832;4.462;2023-02-28T10:09:52;5.30;;;3.03;;
23680;SDS011;62915;50.832;4.462;2023-02-28T10:12:21;8.98;;;3.45;;
23680;SDS011;62915;50.832;4.462;2023-02-28T10:14:49;4.70;;;3.53;;
23680;SDS011;62915;50.832;4.462;2023-02-28T10:17:19;4.25;;;2.70;;
23680;SDS011;62915;50.832;4.462;2023-02-28T10:22:19;4.55;;;3.00;;
23680;SDS011;62915;50.832;4.462;2023-02-28T10:24:49;3.17;;;2.88;;
23680;SDS011;62915;50.832;4.462;2023-02-28T10:27:29;2.83;;;2.53;;
23680;SDS011;62915;50.832;4.462;2023-02-28T10:29:56;2.95;;;2.53;;
23680;SDS011;62915;50.832;4.462;2023-02-28T10:32:26;3.25;;;2.88;;
23680;SDS011;62915;50.832;4.462;2023-02-28T10:34:56;2.65;;;2.40;;
23680;SDS011;62915;50.832;4.462;2023-02-28T10:37:25;4.55;;;2.63;;
23680;SDS011;62915;50.832;4.462;2023-02-28T10:39:52;2.88;;;2.30;;
23680;SDS011;62915;50.832;4.462;2023-02-28T10:42:28;3.55;;;2.20;;
23680;SDS011;62915;50.832;4.462;2023-02-28T10:45:05;5.05;;;2.42;;
23680;SDS011;62915;50.832;4.462;2023-02-28T10:47:41;2.88;;;2.20;;
23680;SDS011;62915;50.832;4.462;2023-02-28T10:58:30;3.67;;;2.92;;
23680;SDS011;62915;50.832;4.462;2023-02-28T11:01:08;5.20;;;2.88;;
23680;SDS011;62915;50.832;4.462;2023-02-28T11:03:42;4.88;;;2.70;;
23680;SDS011;62915;50.832;4.462;2023-02-28T11:06:13;3.28;;;2.88;;
23680;SDS011;62915;50.832;4.462;2023-02-28T11:08:44;5.22;;;2.90;;
23680;SDS011;62915;50.832;4.462;2023-02-28T11:11:15;3.40;;;3.10;;
23680;SDS011;62915;50.832;4.462;2023-02-28T11:13:41;2.88;;;2.47;;
23680;SDS011;62915;50.832;4.462;2023-02-28T11:16:09;3.50;;;2.30;;
23680;SDS011;62915;50.832;4.462;2023-02-28T11:21:06;3.33;;;2.63;;
23680;SDS011;62915;50.832;4.462;2023-02-28T11:23:34;3.08;;;2.78;;
23680;SDS011;62915;50.832;4.462;2023-02-28T11:26:05;3.28;;;2.85;;
23680;SDS011;62915;50.832;4.462;2023-02-28T11:28:39;5.05;;;3.00;;
23680;SDS011;62915;50.832;4.462;2023-02-28T11:33:42;5.30;;;3.00;;
23680;SDS011;62915;50.832;4.462;2023-02-28T11:36:20;3.40;;;3.03;;
23680;SDS011;62915;50.832;4.462;2023-02-28T11:38:49;5.18;;;3.65;;
23680;SDS011;62915;50.832;4.462;2023-02-28T11:46:58;6.78;;;3.05;;
23680;SDS011;62915;50.832;4.462;2023-02-28T11:52:24;5.80;;;3.65;;
23680;SDS011;62915;50.832;4.462;2023-02-28T12:03:16;3.58;;;2.92;;
23680;SDS011;62915;50.832;4.462;2023-02-28T12:05:58;4.82;;;2.95;;
23680;SDS011;62915;50.832;4.462;2023-02-28T12:19:22;3.75;;;2.83;;
23680;SDS011;62915;50.832;4.462;2023-02-28T12:22:00;4.32;;;2.67;;
23680;SDS011;62915;50.832;4.462;2023-02-28T12:27:33;3.67;;;2.65;;
23680;SDS011;62915;50.832;4.462;2023-02-28T12:30:51;4.40;;;3.03;;
23680;SDS011;62915;50.832;4.462;2023-02-28T12:32:55;4.00;;;2.58;;
23680;SDS011;62915;50.832;4.462;2023-02-28T12:35:48;5.60;;;2.63;;
23680;SDS011;62915;50.832;4.462;2023-02-28T12:38:24;3.05;;;2.70;;
23680;SDS011;62915;50.832;4.462;2023-02-28T12:43:34;4.45;;;3.15;;
23680;SDS011;62915;50.832;4.462;2023-02-28T12:46:16;3.40;;;2.97;;
23680;SDS011;62915;50.832;4.462;2023-02-28T12:48:53;3.70;;;3.03;;
23680;SDS011;62915;50.832;4.462;2023-02-28T12:51:21;5.80;;;2.83;;
23680;SDS011;62915;50.832;4.462;2023-02-28T12:56:36;3.70;;;3.13;;
23680;SDS011;62915;50.832;4.462;2023-02-28T13:07:14;3.63;;;3.00;;
23680;SDS011;62915;50.832;4.462;2023-02-28T13:09:51;9.23;;;3.20;;
23680;SDS011;62915;50.832;4.462;2023-02-28T13:12:18;4.10;;;3.00;;
23680;SDS011;62915;50.832;4.462;2023-02-28T13:14:45;4.40;;;2.97;;
23680;SDS011;62915;50.832;4.462;2023-02-28T13:17:12;3.85;;;2.90;;
23680;SDS011;62915;50.832;4.462;2023-02-28T13:24:51;9.70;;;3.00;;
23680;SDS011;62915;50.832;4.462;2023-02-28T13:29:49;2.90;;;2.60;;
23680;SDS011;62915;50.832;4.462;2023-02-28T13:53:08;4.60;;;2.78;;
23680;SDS011;62915;50.832;4.462;2023-02-28T14:01:14;5.22;;;3.08;;
23680;SDS011;62915;50.832;4.462;2023-02-28T14:06:30;3.47;;;2.90;;
23680;SDS011;62915;50.832;4.462;2023-02-28T14:08:59;3.47;;;2.90;;
23680;SDS011;62915;50.832;4.462;2023-02-28T14:11:45;4.13;;;3.10;;
23680;SDS011;62915;50.832;4.462;2023-02-28T14:17:05;3.53;;;3.05;;
23680;SDS011;62915;50.832;4.462;2023-02-28T14:19:40;4.47;;;2.97;;
23680;SDS011;62915;50.832;4.462;2023-02-28T14:27:58;6.00;;;3.42;;
23680;SDS011;62915;50.832;4.462;2023-02-28T14:36:24;5.63;;;3.45;;
23680;SDS011;62915;50.832;4.462;2023-02-28T14:38:58;5.78;;;3.80;;
23680;SDS011;62915;50.832;4.462;2023-02-28T14:44:13;4.97;;;3.40;;
23680;SDS011;62915;50.832;4.462;2023-02-28T14:46:39;3.47;;;3.17;;
23680;SDS011;62915;50.832;4.462;2023-02-28T14:49:12;8.98;;;3.03;;
23680;SDS011;62915;50.832;4.462;2023-02-28T14:54:40;4.28;;;3.35;;
23680;SDS011;62915;50.832;4.462;2023-02-28T14:57:12;6.10;;;3.75;;
23680;SDS011;62915;50.832;4.462;2023-02-28T15:00:36;9.80;;;3.50;;
23680;SDS011;62915;50.832;4.462;2023-02-28T15:02:46;3.40;;;3.05;;
23680;SDS011;62915;50.832;4.462;2023-02-28T15:07:38;4.22;;;3.70;;
23680;SDS011;62915;50.832;4.462;2023-02-28T15:12:35;5.70;;;3.53;;
23680;SDS011;62915;50.832;4.462;2023-02-28T15:15:02;7.15;;;3.83;;
23680;SDS011;62915;50.832;4.462;2023-02-28T15:17:28;3.80;;;3.40;;
23680;SDS011;62915;50.832;4.462;2023-02-28T15:19:54;4.05;;;3.65;;
23680;SDS011;62915;50.832;4.462;2023-02-28T15:22:24;6.43;;;3.47;;
23680;SDS011;62915;50.832;4.462;2023-02-28T15:24:54;4.40;;;3.60;;
23680;SDS011;62915;50.832;4.462;2023-02-28T15:27:25;5.13;;;3.53;;
23680;SDS011;62915;50.832;4.462;2023-02-28T15:29:55;4.78;;;4.13;;
23680;SDS011;62915;50.832;4.462;2023-02-28T15:34:51;5.55;;;3.90;;
23680;SDS011;62915;50.832;4.462;2023-02-28T15:40:05;5.47;;;3.75;;
23680;SDS011;62915;50.832;4.462;2023-02-28T15:43:04;7.43;;;4.40;;
23680;SDS011;62915;50.832;4.462;2023-02-28T15:48:16;5.82;;;4.00;;
23680;SDS011;62915;50.832;4.462;2023-02-28T15:50:54;4.68;;;3.60;;
23680;SDS011;62915;50.832;4.462;2023-02-28T15:53:24;3.97;;;3.58;;
23680;SDS011;62915;50.832;4.462;2023-02-28T15:55:58;4.20;;;3.53;;
23680;SDS011;62915;50.832;4.462;2023-02-28T15:58:28;4.95;;;3.78;;
23680;SDS011;62915;50.832;4.462;2023-02-28T16:01:18;4.30;;;3.90;;
23680;SDS011;62915;50.832;4.462;2023-02-28T16:03:45;5.80;;;3.47;;
23680;SDS011;62915;50.832;4.462;2023-02-28T16:08:41;7.10;;;3.60;;
23680;SDS011;62915;50.832;4.462;2023-02-28T16:11:08;3.92;;;3.53;;
23680;SDS011;62915;50.832;4.462;2023-02-28T16:13:35;4.88;;;3.28;;
23680;SDS011;62915;50.832;4.462;2023-02-28T16:16:01;5.57;;;4.30;;
23680;SDS011;62915;50.832;4.462;2023-02-28T16:18:27;4.40;;;3.70;;
23680;SDS011;62915;50.832;4.462;2023-02-28T16:20:53;4.10;;;3.58;;
23680;SDS011;62915;50.832;4.462;2023-02-28T16:23:18;5.97;;;4.32;;
23680;SDS011;62915;50.832;4.462;2023-02-28T16:25:44;6.10;;;4.20;;
23680;SDS011;62915;50.832;4.462;2023-02-28T16:28:24;7.05;;;4.40;;
23680;SDS011;62915;50.832;4.462;2023-02-28T16:30:57;4.43;;;3.97;;
23680;SDS011;62915;50.832;4.462;2023-02-28T16:33:25;5.47;;;3.88;;
23680;SDS011;62915;50.832;4.462;2023-02-28T16:35:51;5.47;;;4.00;;
23680;SDS011;62915;50.832;4.462;2023-02-28T16:38:17;7.18;;;4.38;;
23680;SDS011;62915;50.832;4.462;2023-02-28T16:40:42;4.95;;;4.13;;
23680;SDS011;62915;50.832;4.462;2023-02-28T16:43:16;6.53;;;4.18;;
23680;SDS011;62915;50.832;4.462;2023-02-28T16:45:44;8.43;;;4.10;;
23680;SDS011;62915;50.832;4.462;2023-02-28T16:48:11;6.18;;;3.78;;
23680;SDS011;62915;50.832;4.462;2023-02-28T16:50:39;5.07;;;3.88;;
23680;SDS011;62915;50.832;4.462;2023-02-28T16:53:05;5.88;;;3.75;;
23680;SDS011;62915;50.832;4.462;2023-02-28T16:55:31;7.30;;;3.75;;
23680;SDS011;62915;50.832;4.462;2023-02-28T16:57:58;4.93;;;3.80;;
23680;SDS011;62915;50.832;4.462;2023-02-28T17:00:25;6.10;;;3.83;;
23680;SDS011;62915;50.832;4.462;2023-02-28T17:02:52;9.20;;;3.67;;
23680;SDS011;62915;50.832;4.462;2023-02-28T17:05:18;4.45;;;3.80;;
23680;SDS011;62915;50.832;4.462;2023-02-28T17:07:45;4.60;;;3.53;;
23680;SDS011;62915;50.832;4.462;2023-02-28T17:10:19;9.98;;;4.18;;
23680;SDS011;62915;50.832;4.462;2023-02-28T17:12:49;6.25;;;4.25;;
23680;SDS011;62915;50.832;4.462;2023-02-28T17:15:16;5.60;;;3.78;;
23680;SDS011;62915;50.832;4.462;2023-02-28T17:17:44;4.35;;;3.53;;
23680;SDS011;62915;50.832;4.462;2023-02-28T17:20:12;5.28;;;3.90;;
23680;SDS011;62915;50.832;4.462;2023-02-28T17:22:39;4.65;;;3.92;;
23680;SDS011;62915;50.832;4.462;2023-02-28T17:25:05;3.75;;;3.35;;
23680;SDS011;62915;50.832;4.462;2023-02-28T17:27:31;6.80;;;4.07;;
23680;SDS011;62915;50.832;4.462;2023-02-28T17:29:57;6.10;;;4.35;;
23680;SDS011;62915;50.832;4.462;2023-02-28T17:32:22;6.15;;;4.30;;
23680;SDS011;62915;50.832;4.462;2023-02-28T17:34:48;7.88;;;5.32;;
23680;SDS011;62915;50.832;4.462;2023-02-28T17:37:14;10.15;;;5.45;;
23680;SDS011;62915;50.832;4.462;2023-02-28T17:39:40;7.13;;;5.00;;
23680;SDS011;62915;50.832;4.462;2023-02-28T17:42:06;8.25;;;5.22;;
23680;SDS011;62915;50.832;4.462;2023-02-28T17:44:32;9.52;;;4.75;;
23680;SDS011;62915;50.832;4.462;2023-02-28T17:46:58;6.30;;;4.90;;
23680;SDS011;62915;50.832;4.462;2023-02-28T17:49:25;8.60;;;5.28;;
23680;SDS011;62915;50.832;4.462;2023-02-28T17:51:51;7.28;;;5.47;;
23680;SDS011;62915;50.832;4.462;2023-02-28T17:54:16;8.32;;;4.97;;
23680;SDS011;62915;50.832;4.462;2023-02-28T17:56:42;6.40;;;5.53;;
23680;SDS011;62915;50.832;4.462;2023-02-28T17:59:08;9.65;;;5.93;;
23680;SDS011;62915;50.832;4.462;2023-02-28T18:01:35;10.35;;;5.55;;